sensor_id;sensor_type;location;lat;lon;timestamp;P1;durP1;ratioP1;P2;durP2;ratioP2
3066;SDS011;1544;48.834;9.194;2024-01-06T00:00:55;7.60;;;6.37;;
3066;SDS011;1544;48.834;9.194;2024-01-06T00:03:32;10.83;;;5.10;;
3066;SDS011;1544;48.834;9.194;2024-01-06T00:06:11;7.67;;;5.23;;
3066;SDS011;1544;48.834;9.194;2024-01-06T00:08:48;5.77;;;5.07;;
3066;SDS011;1544;48.834;9.194;2024-01-06T00:11:29;6.50;;;4.03;;
3066;SDS011;1544;48.834;9.194;2024-01-06T00:14:05;6.00;;;4.10;;
3066;SDS011;1544;48.834;9.194;2024-01-06T00:16:41;4.80;;;3.83;;
3066;SDS011;1544;48.834;9.194;2024-01-06T00:19:17;5.93;;;4.00;;
3066;SDS011;1544;48.834;9.194;2024-01-06T00:21:54;4.63;;;3.97;;
3066;SDS011;1544;48.834;9.194;2024-01-06T00:24:30;4.53;;;4.03;;
3066;SDS011;1544;48.834;9.194;2024-01-06T00:27:07;5.47;;;3.10;;
3066;SDS011;1544;48.834;9.194;2024-01-06T00:29:43;4.23;;;3.73;;
3066;SDS011;1544;48.834;9.194;2024-01-06T00:32:19;6.37;;;3.03;;
3066;SDS011;1544;48.834;9.194;2024-01-06T00:34:55;2.73;;;2.30;;
3066;SDS011;1544;48.834;9.194;2024-01-06T00:37:31;2.30;;;2.10;;
3066;SDS011;1544;48.834;9.194;2024-01-06T00:40:07;3.30;;;2.10;;
3066;SDS011;1544;48.834;9.194;2024-01-06T00:42:44;3.93;;;2.23;;
3066;SDS011;1544;48.834;9.194;2024-01-06T00:45:20;2.80;;;1.87;;
3066;SDS011;1544;48.834;9.194;2024-01-06T00:47:56;2.90;;;1.50;;
3066;SDS011;1544;48.834;9.194;2024-01-06T00:50:32;2.43;;;1.93;;
3066;SDS011;1544;48.834;9.194;2024-01-06T00:53:09;3.57;;;2.20;;
3066;SDS011;1544;48.834;9.194;2024-01-06T00:55:47;2.83;;;1.53;;
3066;SDS011;1544;48.834;9.194;2024-01-06T00:58:23;1.50;;;1.37;;
3066;SDS011;1544;48.834;9.194;2024-01-06T01:00:59;1.77;;;1.30;;
3066;SDS011;1544;48.834;9.194;2024-01-06T01:03:35;2.23;;;1.40;;
3066;SDS011;1544;48.834;9.194;2024-01-06T01:06:11;1.70;;;1.60;;
3066;SDS011;1544;48.834;9.194;2024-01-06T01:08:47;7.27;;;1.80;;
3066;SDS011;1544;48.834;9.194;2024-01-06T01:11:23;4.50;;;1.40;;
3066;SDS011;1544;48.834;9.194;2024-01-06T01:13:59;8.30;;;1.50;;
3066;SDS011;1544;48.834;9.194;2024-01-06T01:16:35;1.33;;;1.20;;
3066;SDS011;1544;48.834;9.194;2024-01-06T01:19:11;1.93;;;1.40;;
3066;SDS011;1544;48.834;9.194;2024-01-06T01:21:47;1.90;;;1.30;;
3066;SDS011;1544;48.834;9.194;2024-01-06T01:24:23;2.53;;;1.27;;
3066;SDS011;1544;48.834;9.194;2024-01-06T01:26:59;4.10;;;1.27;;
3066;SDS011;1544;48.834;9.194;2024-01-06T01:29:35;2.13;;;1.20;;
3066;SDS011;1544;48.834;9.194;2024-01-06T01:32:11;3.57;;;1.23;;
3066;SDS011;1544;48.834;9.194;2024-01-06T01:34:47;1.40;;;1.30;;
3066;SDS011;1544;48.834;9.194;2024-01-06T01:37:23;3.03;;;1.27;;
3066;SDS011;1544;48.834;9.194;2024-01-06T01:40:00;1.60;;;1.33;;
3066;SDS011;1544;48.834;9.194;2024-01-06T01:42:36;3.43;;;1.13;;
3066;SDS011;1544;48.834;9.194;2024-01-06T01:45:12;1.60;;;1.10;;
3066;SDS011;1544;48.834;9.194;2024-01-06T01:47:49;1.77;;;1.10;;
3066;SDS011;1544;48.834;9.194;2024-01-06T01:50:26;1.57;;;1.10;;
3066;SDS011;1544;48.834;9.194;2024-01-06T01:53:03;4.23;;;1.20;;
3066;SDS011;1544;48.834;9.194;2024-01-06T01:55:41;1.37;;;1.00;;
3066;SDS011;1544;48.834;9.194;2024-01-06T01:58:18;1.60;;;1.00;;
3066;SDS011;1544;48.834;9.194;2024-01-06T02:00:54;2.17;;;1.00;;
3066;SDS011;1544;48.834;9.194;2024-01-06T02:03:30;3.33;;;1.10;;
3066;SDS011;1544;48.834;9.194;2024-01-06T02:06:06;2.60;;;0.93;;
3066;SDS011;1544;48.834;9.194;2024-01-06T02:08:42;1.30;;;1.10;;
3066;SDS011;1544;48.834;9.194;2024-01-06T02:11:18;3.80;;;1.00;;
3066;SDS011;1544;48.834;9.194;2024-01-06T02:13:54;2.10;;;1.10;;
3066;SDS011;1544;48.834;9.194;2024-01-06T02:16:30;1.97;;;1.10;;
3066;SDS011;1544;48.834;9.194;2024-01-06T02:19:06;2.33;;;1.30;;
3066;SDS011;1544;48.834;9.194;2024-01-06T02:21:49;2.53;;;1.27;;
3066;SDS011;1544;48.834;9.194;2024-01-06T02:24:29;3.00;;;1.20;;
3066;SDS011;1544;48.834;9.194;2024-01-06T02:27:05;6.13;;;1.17;;
3066;SDS011;1544;48.834;9.194;2024-01-06T02:29:41;1.87;;;1.13;;
3066;SDS011;1544;48.834;9.194;2024-01-06T02:32:17;2.60;;;1.10;;
3066;SDS011;1544;48.834;9.194;2024-01-06T02:34:53;0.90;;;0.90;;
3066;SDS011;1544;48.834;9.194;2024-01-06T02:37:30;1.47;;;1.03;;
3066;SDS011;1544;48.834;9.194;2024-01-06T02:40:06;2.00;;;1.10;;
3066;SDS011;1544;48.834;9.194;2024-01-06T02:42:43;4.40;;;1.03;;
3066;SDS011;1544;48.834;9.194;2024-01-06T02:45:19;2.03;;;0.80;;
3066;SDS011;1544;48.834;9.194;2024-01-06T02:47:55;2.87;;;1.10;;
3066;SDS011;1544;48.834;9.194;2024-01-06T02:50:31;5.33;;;1.30;;
3066;SDS011;1544;48.834;9.194;2024-01-06T02:53:07;0.90;;;0.80;;
3066;SDS011;1544;48.834;9.194;2024-01-06T02:55:45;2.90;;;0.90;;
3066;SDS011;1544;48.834;9.194;2024-01-06T02:58:21;1.13;;;0.90;;
3066;SDS011;1544;48.834;9.194;2024-01-06T03:00:56;2.80;;;1.00;;
3066;SDS011;1544;48.834;9.194;2024-01-06T03:03:34;2.97;;;0.90;;
3066;SDS011;1544;48.834;9.194;2024-01-06T03:06:10;0.90;;;0.80;;
3066;SDS011;1544;48.834;9.194;2024-01-06T03:08:46;2.57;;;1.00;;
3066;SDS011;1544;48.834;9.194;2024-01-06T03:11:22;2.90;;;0.83;;
3066;SDS011;1544;48.834;9.194;2024-01-06T03:13:58;1.73;;;0.97;;
3066;SDS011;1544;48.834;9.194;2024-01-06T03:16:34;1.73;;;1.03;;
3066;SDS011;1544;48.834;9.194;2024-01-06T03:19:10;2.17;;;0.73;;
3066;SDS011;1544;48.834;9.194;2024-01-06T03:21:46;1.20;;;0.70;;
3066;SDS011;1544;48.834;9.194;2024-01-06T03:24:22;6.00;;;1.30;;
3066;SDS011;1544;48.834;9.194;2024-01-06T03:26:59;1.80;;;1.23;;
3066;SDS011;1544;48.834;9.194;2024-01-06T03:29:35;4.13;;;0.90;;
3066;SDS011;1544;48.834;9.194;2024-01-06T03:32:11;2.93;;;0.80;;
3066;SDS011;1544;48.834;9.194;2024-01-06T03:34:47;2.60;;;0.80;;
3066;SDS011;1544;48.834;9.194;2024-01-06T03:37:24;2.23;;;1.10;;
3066;SDS011;1544;48.834;9.194;2024-01-06T03:40:00;1.77;;;1.03;;
3066;SDS011;1544;48.834;9.194;2024-01-06T03:42:37;2.10;;;1.00;;
3066;SDS011;1544;48.834;9.194;2024-01-06T03:45:13;1.60;;;0.97;;
3066;SDS011;1544;48.834;9.194;2024-01-06T03:47:49;2.97;;;1.07;;
3066;SDS011;1544;48.834;9.194;2024-01-06T03:50:25;3.80;;;1.00;;
3066;SDS011;1544;48.834;9.194;2024-01-06T03:53:01;1.60;;;0.80;;
3066;SDS011;1544;48.834;9.194;2024-01-06T03:55:36;4.37;;;0.90;;
3066;SDS011;1544;48.834;9.194;2024-01-06T03:58:12;3.97;;;1.10;;
3066;SDS011;1544;48.834;9.194;2024-01-06T04:00:48;2.27;;;0.90;;
3066;SDS011;1544;48.834;9.194;2024-01-06T04:03:24;2.27;;;1.00;;
3066;SDS011;1544;48.834;9.194;2024-01-06T04:06:01;3.93;;;0.80;;
3066;SDS011;1544;48.834;9.194;2024-01-06T04:08:38;3.07;;;1.10;;
3066;SDS011;1544;48.834;9.194;2024-01-06T04:11:15;2.57;;;1.03;;
3066;SDS011;1544;48.834;9.194;2024-01-06T04:13:51;1.03;;;0.70;;
3066;SDS011;1544;48.834;9.194;2024-01-06T04:16:27;1.23;;;0.80;;
3066;SDS011;1544;48.834;9.194;2024-01-06T04:19:03;2.10;;;1.00;;
3066;SDS011;1544;48.834;9.194;2024-01-06T04:21:42;1.60;;;1.00;;
3066;SDS011;1544;48.834;9.194;2024-01-06T04:24:18;0.93;;;0.90;;
3066;SDS011;1544;48.834;9.194;2024-01-06T04:26:54;2.00;;;0.80;;
3066;SDS011;1544;48.834;9.194;2024-01-06T04:29:30;1.80;;;0.90;;
3066;SDS011;1544;48.834;9.194;2024-01-06T04:32:06;5.40;;;1.23;;
3066;SDS011;1544;48.834;9.194;2024-01-06T04:34:42;2.90;;;0.97;;
3066;SDS011;1544;48.834;9.194;2024-01-06T04:37:18;2.50;;;1.07;;
3066;SDS011;1544;48.834;9.194;2024-01-06T04:39:54;1.93;;;0.80;;
3066;SDS011;1544;48.834;9.194;2024-01-06T04:42:31;3.10;;;1.10;;
3066;SDS011;1544;48.834;9.194;2024-01-06T04:45:07;1.00;;;0.90;;
3066;SDS011;1544;48.834;9.194;2024-01-06T04:47:43;0.83;;;0.80;;
3066;SDS011;1544;48.834;9.194;2024-01-06T04:50:19;0.87;;;0.80;;
3066;SDS011;1544;48.834;9.194;2024-01-06T04:52:56;1.07;;;0.90;;
3066;SDS011;1544;48.834;9.194;2024-01-06T04:55:32;2.70;;;0.80;;
3066;SDS011;1544;48.834;9.194;2024-01-06T04:58:08;3.17;;;1.10;;
3066;SDS011;1544;48.834;9.194;2024-01-06T05:00:44;3.47;;;0.93;;
3066;SDS011;1544;48.834;9.194;2024-01-06T05:03:20;1.87;;;1.00;;
3066;SDS011;1544;48.834;9.194;2024-01-06T05:05:56;4.00;;;1.07;;
3066;SDS011;1544;48.834;9.194;2024-01-06T05:08:32;2.30;;;0.87;;
3066;SDS011;1544;48.834;9.194;2024-01-06T05:11:08;0.80;;;0.80;;
3066;SDS011;1544;48.834;9.194;2024-01-06T05:13:44;3.70;;;0.83;;
3066;SDS011;1544;48.834;9.194;2024-01-06T05:16:20;1.50;;;1.00;;
3066;SDS011;1544;48.834;9.194;2024-01-06T05:18:56;1.83;;;0.83;;
3066;SDS011;1544;48.834;9.194;2024-01-06T05:21:32;1.77;;;0.90;;
3066;SDS011;1544;48.834;9.194;2024-01-06T05:24:09;1.83;;;0.90;;
3066;SDS011;1544;48.834;9.194;2024-01-06T05:26:44;1.20;;;0.90;;
3066;SDS011;1544;48.834;9.194;2024-01-06T05:29:20;1.63;;;0.97;;
3066;SDS011;1544;48.834;9.194;2024-01-06T05:31:56;1.90;;;0.80;;
3066;SDS011;1544;48.834;9.194;2024-01-06T05:34:32;2.50;;;0.90;;
3066;SDS011;1544;48.834;9.194;2024-01-06T05:37:08;2.17;;;1.40;;
3066;SDS011;1544;48.834;9.194;2024-01-06T05:39:44;1.33;;;0.93;;
3066;SDS011;1544;48.834;9.194;2024-01-06T05:42:20;0.93;;;0.80;;
3066;SDS011;1544;48.834;9.194;2024-01-06T05:44:56;1.60;;;0.90;;
3066;SDS011;1544;48.834;9.194;2024-01-06T05:47:32;1.60;;;0.87;;
3066;SDS011;1544;48.834;9.194;2024-01-06T05:50:08;2.20;;;0.90;;
3066;SDS011;1544;48.834;9.194;2024-01-06T05:52:45;1.30;;;0.70;;
3066;SDS011;1544;48.834;9.194;2024-01-06T05:55:23;0.80;;;0.80;;
3066;SDS011;1544;48.834;9.194;2024-01-06T05:57:59;2.40;;;1.00;;
3066;SDS011;1544;48.834;9.194;2024-01-06T06:00:36;1.13;;;0.80;;
3066;SDS011;1544;48.834;9.194;2024-01-06T06:03:12;1.23;;;0.90;;
3066;SDS011;1544;48.834;9.194;2024-01-06T06:05:48;1.20;;;0.90;;
3066;SDS011;1544;48.834;9.194;2024-01-06T06:08:24;1.57;;;1.33;;
3066;SDS011;1544;48.834;9.194;2024-01-06T06:11:00;3.07;;;1.20;;
3066;SDS011;1544;48.834;9.194;2024-01-06T06:13:38;1.20;;;1.10;;
3066;SDS011;1544;48.834;9.194;2024-01-06T06:16:16;0.90;;;0.90;;
3066;SDS011;1544;48.834;9.194;2024-01-06T06:18:52;2.50;;;0.97;;
3066;SDS011;1544;48.834;9.194;2024-01-06T06:21:28;1.10;;;1.00;;
3066;SDS011;1544;48.834;9.194;2024-01-06T06:24:04;1.93;;;1.10;;
3066;SDS011;1544;48.834;9.194;2024-01-06T06:26:40;1.53;;;1.43;;
3066;SDS011;1544;48.834;9.194;2024-01-06T06:29:16;7.07;;;1.40;;
3066;SDS011;1544;48.834;9.194;2024-01-06T06:31:52;2.50;;;0.90;;
3066;SDS011;1544;48.834;9.194;2024-01-06T06:34:28;2.20;;;1.00;;
3066;SDS011;1544;48.834;9.194;2024-01-06T06:37:04;3.87;;;1.20;;
3066;SDS011;1544;48.834;9.194;2024-01-06T06:39:40;2.03;;;1.40;;
3066;SDS011;1544;48.834;9.194;2024-01-06T06:42:19;1.50;;;1.07;;
3066;SDS011;1544;48.834;9.194;2024-01-06T06:44:55;3.43;;;1.13;;
3066;SDS011;1544;48.834;9.194;2024-01-06T06:47:31;1.57;;;1.40;;
3066;SDS011;1544;48.834;9.194;2024-01-06T06:50:07;5.30;;;1.60;;
3066;SDS011;1544;48.834;9.194;2024-01-06T06:52:45;1.70;;;1.57;;
3066;SDS011;1544;48.834;9.194;2024-01-06T06:55:22;1.80;;;1.70;;
3066;SDS011;1544;48.834;9.194;2024-01-06T06:57:59;2.13;;;1.60;;
3066;SDS011;1544;48.834;9.194;2024-01-06T07:00:43;1.70;;;1.50;;
3066;SDS011;1544;48.834;9.194;2024-01-06T07:03:20;3.07;;;1.33;;
3066;SDS011;1544;48.834;9.194;2024-01-06T07:05:56;2.40;;;2.03;;
3066;SDS011;1544;48.834;9.194;2024-01-06T07:08:33;2.50;;;1.30;;
3066;SDS011;1544;48.834;9.194;2024-01-06T07:11:09;1.83;;;1.43;;
3066;SDS011;1544;48.834;9.194;2024-01-06T07:13:47;1.60;;;1.50;;
3066;SDS011;1544;48.834;9.194;2024-01-06T07:16:23;2.93;;;1.70;;
3066;SDS011;1544;48.834;9.194;2024-01-06T07:18:59;1.40;;;1.30;;
3066;SDS011;1544;48.834;9.194;2024-01-06T07:21:35;1.80;;;1.70;;
3066;SDS011;1544;48.834;9.194;2024-01-06T07:24:12;5.30;;;1.33;;
3066;SDS011;1544;48.834;9.194;2024-01-06T07:26:49;2.53;;;1.50;;
3066;SDS011;1544;48.834;9.194;2024-01-06T07:29:25;1.63;;;1.30;;
3066;SDS011;1544;48.834;9.194;2024-01-06T07:32:01;2.63;;;1.50;;
3066;SDS011;1544;48.834;9.194;2024-01-06T07:34:37;1.87;;;1.50;;
3066;SDS011;1544;48.834;9.194;2024-01-06T07:37:13;1.93;;;1.40;;
3066;SDS011;1544;48.834;9.194;2024-01-06T07:39:49;1.37;;;1.27;;
3066;SDS011;1544;48.834;9.194;2024-01-06T07:42:25;2.73;;;1.20;;
3066;SDS011;1544;48.834;9.194;2024-01-06T07:45:01;2.80;;;1.20;;
3066;SDS011;1544;48.834;9.194;2024-01-06T07:47:37;2.03;;;1.03;;
3066;SDS011;1544;48.834;9.194;2024-01-06T07:50:14;3.00;;;1.20;;
3066;SDS011;1544;48.834;9.194;2024-01-06T07:52:50;1.57;;;1.10;;
3066;SDS011;1544;48.834;9.194;2024-01-06T07:55:26;1.53;;;1.00;;
3066;SDS011;1544;48.834;9.194;2024-01-06T07:58:04;3.13;;;1.10;;
3066;SDS011;1544;48.834;9.194;2024-01-06T08:00:40;0.90;;;0.90;;
3066;SDS011;1544;48.834;9.194;2024-01-06T08:03:16;1.13;;;1.03;;
3066;SDS011;1544;48.834;9.194;2024-01-06T08:05:53;2.40;;;0.87;;
3066;SDS011;1544;48.834;9.194;2024-01-06T08:08:30;1.00;;;0.90;;
3066;SDS011;1544;48.834;9.194;2024-01-06T08:11:06;3.73;;;1.10;;
3066;SDS011;1544;48.834;9.194;2024-01-06T08:13:42;1.00;;;0.90;;
3066;SDS011;1544;48.834;9.194;2024-01-06T08:16:19;1.10;;;0.90;;
3066;SDS011;1544;48.834;9.194;2024-01-06T08:18:55;1.20;;;1.10;;
3066;SDS011;1544;48.834;9.194;2024-01-06T08:21:31;1.20;;;1.10;;
3066;SDS011;1544;48.834;9.194;2024-01-06T08:24:09;3.17;;;1.13;;
3066;SDS011;1544;48.834;9.194;2024-01-06T08:26:45;1.70;;;0.90;;
3066;SDS011;1544;48.834;9.194;2024-01-06T08:29:21;1.33;;;1.00;;
3066;SDS011;1544;48.834;9.194;2024-01-06T08:31:57;1.00;;;0.90;;
3066;SDS011;1544;48.834;9.194;2024-01-06T08:34:33;1.10;;;0.87;;
3066;SDS011;1544;48.834;9.194;2024-01-06T08:37:09;1.07;;;1.00;;
3066;SDS011;1544;48.834;9.194;2024-01-06T08:39:45;1.00;;;0.87;;
3066;SDS011;1544;48.834;9.194;2024-01-06T08:42:21;1.63;;;0.90;;
3066;SDS011;1544;48.834;9.194;2024-01-06T08:45:01;1.23;;;1.10;;
3066;SDS011;1544;48.834;9.194;2024-01-06T08:47:37;1.53;;;1.03;;
3066;SDS011;1544;48.834;9.194;2024-01-06T08:50:13;2.10;;;1.03;;
3066;SDS011;1544;48.834;9.194;2024-01-06T08:52:49;1.30;;;1.20;;
3066;SDS011;1544;48.834;9.194;2024-01-06T08:55:25;2.30;;;1.33;;
3066;SDS011;1544;48.834;9.194;2024-01-06T08:58:02;3.67;;;1.30;;
3066;SDS011;1544;48.834;9.194;2024-01-06T09:00:38;1.90;;;0.90;;
3066;SDS011;1544;48.834;9.194;2024-01-06T09:03:17;3.00;;;1.20;;
3066;SDS011;1544;48.834;9.194;2024-01-06T09:05:55;2.40;;;1.27;;
3066;SDS011;1544;48.834;9.194;2024-01-06T09:08:33;1.73;;;1.37;;
3066;SDS011;1544;48.834;9.194;2024-01-06T09:11:09;1.30;;;1.20;;
3066;SDS011;1544;48.834;9.194;2024-01-06T09:13:45;1.53;;;1.20;;
3066;SDS011;1544;48.834;9.194;2024-01-06T09:16:21;1.53;;;1.43;;
3066;SDS011;1544;48.834;9.194;2024-01-06T09:18:57;1.67;;;1.30;;
3066;SDS011;1544;48.834;9.194;2024-01-06T09:21:33;1.70;;;1.60;;
3066;SDS011;1544;48.834;9.194;2024-01-06T09:24:09;4.17;;;1.30;;
3066;SDS011;1544;48.834;9.194;2024-01-06T09:26:45;6.17;;;1.87;;
3066;SDS011;1544;48.834;9.194;2024-01-06T09:29:22;1.20;;;1.10;;
3066;SDS011;1544;48.834;9.194;2024-01-06T09:31:58;3.13;;;1.03;;
3066;SDS011;1544;48.834;9.194;2024-01-06T09:34:34;1.40;;;1.30;;
3066;SDS011;1544;48.834;9.194;2024-01-06T09:37:15;1.77;;;1.30;;
3066;SDS011;1544;48.834;9.194;2024-01-06T09:39:51;1.20;;;1.10;;
3066;SDS011;1544;48.834;9.194;2024-01-06T09:42:26;1.60;;;1.30;;
3066;SDS011;1544;48.834;9.194;2024-01-06T09:45:03;1.43;;;1.33;;
3066;SDS011;1544;48.834;9.194;2024-01-06T09:47:40;1.93;;;1.20;;
3066;SDS011;1544;48.834;9.194;2024-01-06T09:50:20;1.20;;;1.10;;
3066;SDS011;1544;48.834;9.194;2024-01-06T09:52:56;1.37;;;1.27;;
3066;SDS011;1544;48.834;9.194;2024-01-06T09:55:40;1.40;;;1.30;;
3066;SDS011;1544;48.834;9.194;2024-01-06T09:58:18;1.37;;;1.10;;
3066;SDS011;1544;48.834;9.194;2024-01-06T10:00:54;1.23;;;1.13;;
3066;SDS011;1544;48.834;9.194;2024-01-06T10:03:31;1.73;;;1.00;;
3066;SDS011;1544;48.834;9.194;2024-01-06T10:06:09;1.30;;;0.97;;
3066;SDS011;1544;48.834;9.194;2024-01-06T10:08:49;1.57;;;1.17;;
3066;SDS011;1544;48.834;9.194;2024-01-06T10:11:27;1.27;;;0.90;;
3066;SDS011;1544;48.834;9.194;2024-01-06T10:14:03;1.10;;;1.00;;
3066;SDS011;1544;48.834;9.194;2024-01-06T10:16:39;1.40;;;1.30;;
3066;SDS011;1544;48.834;9.194;2024-01-06T10:19:15;1.50;;;1.40;;
3066;SDS011;1544;48.834;9.194;2024-01-06T10:21:52;1.43;;;1.20;;
3066;SDS011;1544;48.834;9.194;2024-01-06T10:24:29;1.20;;;1.10;;
3066;SDS011;1544;48.834;9.194;2024-01-06T10:27:07;3.00;;;1.30;;
3066;SDS011;1544;48.834;9.194;2024-01-06T10:29:44;1.40;;;1.30;;
3066;SDS011;1544;48.834;9.194;2024-01-06T10:32:20;3.10;;;1.10;;
3066;SDS011;1544;48.834;9.194;2024-01-06T10:34:57;1.00;;;0.90;;
3066;SDS011;1544;48.834;9.194;2024-01-06T10:37:33;1.20;;;0.93;;
3066;SDS011;1544;48.834;9.194;2024-01-06T10:40:10;0.80;;;0.80;;
3066;SDS011;1544;48.834;9.194;2024-01-06T10:42:47;1.17;;;1.07;;
3066;SDS011;1544;48.834;9.194;2024-01-06T10:45:23;1.00;;;1.00;;
3066;SDS011;1544;48.834;9.194;2024-01-06T10:47:59;1.17;;;1.00;;
3066;SDS011;1544;48.834;9.194;2024-01-06T10:50:38;1.10;;;1.00;;
3066;SDS011;1544;48.834;9.194;2024-01-06T10:53:14;1.23;;;1.13;;
3066;SDS011;1544;48.834;9.194;2024-01-06T10:55:52;1.33;;;1.10;;
3066;SDS011;1544;48.834;9.194;2024-01-06T10:58:31;1.77;;;1.20;;
3066;SDS011;1544;48.834;9.194;2024-01-06T11:01:09;1.43;;;1.40;;
3066;SDS011;1544;48.834;9.194;2024-01-06T11:03:48;1.33;;;1.27;;
3066;SDS011;1544;48.834;9.194;2024-01-06T11:06:25;3.10;;;1.37;;
3066;SDS011;1544;48.834;9.194;2024-01-06T11:11:50;1.60;;;1.50;;
3066;SDS011;1544;48.834;9.194;2024-01-06T11:14:27;2.03;;;1.50;;
3066;SDS011;1544;48.834;9.194;2024-01-06T11:17:03;1.93;;;1.63;;
3066;SDS011;1544;48.834;9.194;2024-01-06T11:22:19;1.43;;;1.33;;
3066;SDS011;1544;48.834;9.194;2024-01-06T11:25:07;1.77;;;1.60;;
3066;SDS011;1544;48.834;9.194;2024-01-06T11:27:49;1.90;;;1.80;;
3066;SDS011;1544;48.834;9.194;2024-01-06T11:30:26;2.20;;;2.10;;
3066;SDS011;1544;48.834;9.194;2024-01-06T11:33:04;1.87;;;1.77;;
3066;SDS011;1544;48.834;9.194;2024-01-06T11:35:41;1.73;;;1.63;;
3066;SDS011;1544;48.834;9.194;2024-01-06T11:38:19;2.17;;;2.07;;
3066;SDS011;1544;48.834;9.194;2024-01-06T11:40:59;2.23;;;2.13;;
3066;SDS011;1544;48.834;9.194;2024-01-06T11:43:35;4.80;;;1.97;;
3066;SDS011;1544;48.834;9.194;2024-01-06T11:46:13;2.50;;;2.30;;
3066;SDS011;1544;48.834;9.194;2024-01-06T11:48:49;2.10;;;2.00;;
3066;SDS011;1544;48.834;9.194;2024-01-06T11:51:27;2.03;;;1.93;;
3066;SDS011;1544;48.834;9.194;2024-01-06T11:54:03;2.07;;;1.97;;
3066;SDS011;1544;48.834;9.194;2024-01-06T11:56:40;2.40;;;2.30;;
3066;SDS011;1544;48.834;9.194;2024-01-06T11:59:15;2.10;;;1.90;;
3066;SDS011;1544;48.834;9.194;2024-01-06T12:01:51;3.63;;;2.30;;
3066;SDS011;1544;48.834;9.194;2024-01-06T12:04:28;2.50;;;2.20;;
3066;SDS011;1544;48.834;9.194;2024-01-06T12:07:05;2.43;;;1.90;;
3066;SDS011;1544;48.834;9.194;2024-01-06T12:09:42;3.03;;;2.80;;
3066;SDS011;1544;48.834;9.194;2024-01-06T12:12:18;2.60;;;2.40;;
3066;SDS011;1544;48.834;9.194;2024-01-06T12:14:54;3.17;;;2.87;;
3066;SDS011;1544;48.834;9.194;2024-01-06T12:17:30;2.83;;;2.63;;
3066;SDS011;1544;48.834;9.194;2024-01-06T12:20:07;3.23;;;2.93;;
3066;SDS011;1544;48.834;9.194;2024-01-06T12:22:44;2.60;;;2.40;;
3066;SDS011;1544;48.834;9.194;2024-01-06T12:25:20;3.03;;;2.80;;
3066;SDS011;1544;48.834;9.194;2024-01-06T12:27:58;3.27;;;3.07;;
3066;SDS011;1544;48.834;9.194;2024-01-06T12:30:37;3.13;;;2.83;;
3066;SDS011;1544;48.834;9.194;2024-01-06T12:33:14;3.87;;;3.10;;
3066;SDS011;1544;48.834;9.194;2024-01-06T12:35:50;3.70;;;3.23;;
3066;SDS011;1544;48.834;9.194;2024-01-06T12:38:26;4.87;;;4.07;;
3066;SDS011;1544;48.834;9.194;2024-01-06T12:41:06;3.00;;;2.80;;
3066;SDS011;1544;48.834;9.194;2024-01-06T12:43:42;2.80;;;2.60;;
3066;SDS011;1544;48.834;9.194;2024-01-06T12:46:18;3.43;;;3.10;;
3066;SDS011;1544;48.834;9.194;2024-01-06T12:48:54;3.63;;;3.33;;
3066;SDS011;1544;48.834;9.194;2024-01-06T12:51:30;3.20;;;3.00;;
3066;SDS011;1544;48.834;9.194;2024-01-06T12:54:06;3.50;;;3.13;;
3066;SDS011;1544;48.834;9.194;2024-01-06T12:56:42;3.53;;;3.23;;
3066;SDS011;1544;48.834;9.194;2024-01-06T12:59:18;3.47;;;3.13;;
3066;SDS011;1544;48.834;9.194;2024-01-06T13:01:54;4.43;;;3.57;;
3066;SDS011;1544;48.834;9.194;2024-01-06T13:04:30;4.37;;;3.97;;
3066;SDS011;1544;48.834;9.194;2024-01-06T13:07:06;3.57;;;3.37;;
3066;SDS011;1544;48.834;9.194;2024-01-06T13:09:42;4.07;;;3.77;;
3066;SDS011;1544;48.834;9.194;2024-01-06T13:12:19;2.90;;;2.70;;
3066;SDS011;1544;48.834;9.194;2024-01-06T13:14:55;4.30;;;3.90;;
3066;SDS011;1544;48.834;9.194;2024-01-06T13:17:31;4.53;;;4.23;;
3066;SDS011;1544;48.834;9.194;2024-01-06T13:20:08;4.20;;;3.80;;
3066;SDS011;1544;48.834;9.194;2024-01-06T13:22:44;4.60;;;4.20;;
3066;SDS011;1544;48.834;9.194;2024-01-06T13:25:20;5.23;;;4.83;;
3066;SDS011;1544;48.834;9.194;2024-01-06T13:27:57;5.10;;;4.70;;
3066;SDS011;1544;48.834;9.194;2024-01-06T13:30:33;5.00;;;4.23;;
3066;SDS011;1544;48.834;9.194;2024-01-06T13:33:09;4.40;;;4.00;;
3066;SDS011;1544;48.834;9.194;2024-01-06T13:35:46;4.90;;;4.40;;
3066;SDS011;1544;48.834;9.194;2024-01-06T13:38:22;4.37;;;3.97;;
3066;SDS011;1544;48.834;9.194;2024-01-06T13:40:58;5.27;;;4.67;;
3066;SDS011;1544;48.834;9.194;2024-01-06T13:43:34;5.57;;;4.70;;
3066;SDS011;1544;48.834;9.194;2024-01-06T13:46:10;5.53;;;5.03;;
3066;SDS011;1544;48.834;9.194;2024-01-06T13:48:49;6.67;;;4.30;;
3066;SDS011;1544;48.834;9.194;2024-01-06T13:51:25;5.33;;;4.83;;
3066;SDS011;1544;48.834;9.194;2024-01-06T13:54:01;6.73;;;4.97;;
3066;SDS011;1544;48.834;9.194;2024-01-06T13:56:37;5.60;;;5.10;;
3066;SDS011;1544;48.834;9.194;2024-01-06T13:59:13;6.23;;;5.60;;
3066;SDS011;1544;48.834;9.194;2024-01-06T14:01:51;5.63;;;5.13;;
3066;SDS011;1544;48.834;9.194;2024-01-06T14:04:27;5.57;;;4.97;;
3066;SDS011;1544;48.834;9.194;2024-01-06T14:07:03;7.20;;;5.40;;
3066;SDS011;1544;48.834;9.194;2024-01-06T14:09:40;5.30;;;4.80;;
3066;SDS011;1544;48.834;9.194;2024-01-06T14:12:16;6.00;;;5.40;;
3066;SDS011;1544;48.834;9.194;2024-01-06T14:14:52;7.93;;;5.53;;
3066;SDS011;1544;48.834;9.194;2024-01-06T14:17:28;9.10;;;6.00;;
3066;SDS011;1544;48.834;9.194;2024-01-06T14:20:04;6.47;;;5.87;;
3066;SDS011;1544;48.834;9.194;2024-01-06T14:22:41;7.17;;;5.50;;
3066;SDS011;1544;48.834;9.194;2024-01-06T14:25:17;8.90;;;5.83;;
3066;SDS011;1544;48.834;9.194;2024-01-06T14:27:53;5.60;;;5.10;;
3066;SDS011;1544;48.834;9.194;2024-01-06T14:30:29;7.30;;;5.50;;
3066;SDS011;1544;48.834;9.194;2024-01-06T14:33:05;6.90;;;6.20;;
3066;SDS011;1544;48.834;9.194;2024-01-06T14:35:42;5.83;;;5.30;;
3066;SDS011;1544;48.834;9.194;2024-01-06T14:38:19;6.87;;;6.03;;
3066;SDS011;1544;48.834;9.194;2024-01-06T14:40:55;6.67;;;5.97;;
3066;SDS011;1544;48.834;9.194;2024-01-06T14:43:31;9.70;;;6.27;;
3066;SDS011;1544;48.834;9.194;2024-01-06T14:46:08;7.00;;;6.30;;
3066;SDS011;1544;48.834;9.194;2024-01-06T14:48:44;6.60;;;5.90;;
3066;SDS011;1544;48.834;9.194;2024-01-06T14:51:20;6.67;;;5.83;;
3066;SDS011;1544;48.834;9.194;2024-01-06T14:53:56;9.57;;;6.57;;
3066;SDS011;1544;48.834;9.194;2024-01-06T14:56:32;6.47;;;5.50;;
3066;SDS011;1544;48.834;9.194;2024-01-06T14:59:08;6.87;;;5.97;;
3066;SDS011;1544;48.834;9.194;2024-01-06T15:01:44;7.00;;;5.83;;
3066;SDS011;1544;48.834;9.194;2024-01-06T15:04:20;6.40;;;5.80;;
3066;SDS011;1544;48.834;9.194;2024-01-06T15:06:57;7.67;;;5.63;;
3066;SDS011;1544;48.834;9.194;2024-01-06T15:09:33;6.53;;;5.73;;
3066;SDS011;1544;48.834;9.194;2024-01-06T15:12:14;11.20;;;8.23;;
3066;SDS011;1544;48.834;9.194;2024-01-06T15:14:49;10.37;;;8.20;;
3066;SDS011;1544;48.834;9.194;2024-01-06T15:17:25;6.73;;;5.87;;
3066;SDS011;1544;48.834;9.194;2024-01-06T15:20:02;7.70;;;5.90;;
3066;SDS011;1544;48.834;9.194;2024-01-06T15:22:40;10.80;;;9.10;;
3066;SDS011;1544;48.834;9.194;2024-01-06T15:25:16;8.47;;;7.20;;
3066;SDS011;1544;48.834;9.194;2024-01-06T15:27:53;10.47;;;7.97;;
3066;SDS011;1544;48.834;9.194;2024-01-06T15:30:29;9.50;;;7.20;;
3066;SDS011;1544;48.834;9.194;2024-01-06T15:33:05;9.90;;;7.20;;
3066;SDS011;1544;48.834;9.194;2024-01-06T15:35:41;9.33;;;7.40;;
3066;SDS011;1544;48.834;9.194;2024-01-06T15:38:17;10.20;;;7.83;;
3066;SDS011;1544;48.834;9.194;2024-01-06T15:40:53;8.40;;;7.53;;
3066;SDS011;1544;48.834;9.194;2024-01-06T15:43:29;9.23;;;7.37;;
3066;SDS011;1544;48.834;9.194;2024-01-06T15:46:05;9.67;;;7.90;;
3066;SDS011;1544;48.834;9.194;2024-01-06T15:48:41;9.93;;;7.93;;
3066;SDS011;1544;48.834;9.194;2024-01-06T15:51:18;10.70;;;7.87;;
3066;SDS011;1544;48.834;9.194;2024-01-06T15:53:54;8.87;;;7.27;;
3066;SDS011;1544;48.834;9.194;2024-01-06T15:56:30;9.60;;;7.60;;
3066;SDS011;1544;48.834;9.194;2024-01-06T15:59:07;11.23;;;8.57;;
3066;SDS011;1544;48.834;9.194;2024-01-06T16:01:43;8.50;;;7.03;;
3066;SDS011;1544;48.834;9.194;2024-01-06T16:04:22;9.30;;;7.17;;
3066;SDS011;1544;48.834;9.194;2024-01-06T16:06:58;10.73;;;7.90;;
3066;SDS011;1544;48.834;9.194;2024-01-06T16:09:34;11.73;;;7.20;;
3066;SDS011;1544;48.834;9.194;2024-01-06T16:12:11;11.23;;;8.23;;
3066;SDS011;1544;48.834;9.194;2024-01-06T16:14:47;15.53;;;8.93;;
3066;SDS011;1544;48.834;9.194;2024-01-06T16:17:24;12.17;;;8.47;;